KALB/ALB METAR and TAF weather

Enter ICAO airport designator
Station Type Date Time Source
KALB METAR 2018/01/21 11:51 UTC NOAA

KALB 211151Z 30008KT 10SM OVC035 03/M02 A3012 RMK AO2 SLP202 4/002 T00331022 10033 20000 51016


Station Type Date Time Source
KALB Decoded METAR 2018/01/21 11:51 UTC NOAA

ALBANY INTERNATIONAL AIRPORT, NY, United States (KALB) 42-45N 73-48W
Jan 21, 2018 - 06:51 AM EST / 2018.01.21 1151 UTC
Wind: from the WNW (300 degrees) at 9 MPH (8 KT):0
Visibility: 10 mile(s):0
Sky conditions: overcast
Weather: 2 inches of snow on ground
Temperature: 37.9 F (3.3 C)
Dew Point: 28.0 F (-2.2 C)
Relative Humidity: 67%
Pressure (altimeter): 30.12 in. Hg (1019 hPa)
Pressure tendency: 0.05 inches (1.6 hPa) higher than three hours ago
ob: KALB 211151Z 30008KT 10SM OVC035 03/M02 A3012 RMK AO2 SLP202 4/002 T00331022 10033 20000 51016
cycle: 12

Station Type Date Time Source
KALB TAF 2018/01/21 12:22 UTC NOAA

TAF KALB 211120Z 2112/2212 28006KT P6SM BKN035
FM220300 VRB03KT P6SM BKN025
FM220600 VRB03KT 5SM BR VCSH OVC015
FM220900 VRB03KT 2SM BR VCSH OVC008


Example: see airport list